Time;durP1;ratioP1;P1;durP2;ratioP2;P2;SDS_P1;SDS_P2;PMS_P1;PMS_P2;Temp;Humidity;BMP_temperature;BMP_pressure;BME280_temperature;BME280_humidity;BME280_pressure;Samples;Min_cycle;Max_cycle;Signal;HPM_P1;HPM_P2
2022/11/10 00:02:24;;;;;;;25.92;16.42;;;;;;;10.84;100.00;99186.16;5170197;27;20407;-95
2022/11/10 00:04:55;;;;;;;25.70;16.33;;;;;;;10.81;100.00;99186.22;5170442;27;20104;-95
2022/11/10 00:07:26;;;;;;;25.42;16.98;;;;;;;10.90;100.00;99204.66;5170394;27;20039;-95
2022/11/10 00:09:53;;;;;;;24.58;17.00;;;;;;;10.84;100.00;99211.00;5169643;27;20091;-95
2022/11/10 00:12:21;;;;;;;27.25;17.02;;;;;;;10.62;100.00;99175.97;5170007;27;20050;-95
2022/11/10 00:22:25;;;;;;;25.98;18.02;;;;;;;10.34;100.00;99207.53;5149211;28;20035;-96
2022/11/10 00:24:51;;;;;;;;;;;;;;;10.37;100.00;99222.59;5149656;28;20051;-96
2022/11/10 00:27:20;;;;;;;24.60;17.05;;;;;;;10.23;100.00;99213.03;5148472;28;19954;-95
2022/11/10 00:29:51;;;;;;;27.17;17.05;;;;;;;10.14;100.00;99197.25;5149887;28;20051;-95
2022/11/10 00:32:19;;;;;;;26.27;17.80;;;;;;;10.18;100.00;99192.78;5149174;28;20119;-95
2022/11/10 00:34:48;;;;;;;25.50;17.55;;;;;;;10.18;100.00;99196.28;5144119;28;20043;-96
2022/11/10 00:37:14;;;;;;;25.20;17.13;;;;;;;10.27;100.00;99187.28;5143740;28;20047;-95
2022/11/10 00:39:42;;;;;;;25.95;17.35;;;;;;;10.34;100.00;99180.94;5147757;28;20495;-95
2022/11/10 00:42:09;;;;;;;27.08;16.73;;;;;;;10.35;100.00;99181.84;5144835;28;20039;-94
2022/11/10 00:44:46;;;;;;;25.48;16.13;;;;;;;10.39;100.00;99192.41;5146333;28;20043;-95
2022/11/10 00:47:13;;;;;;;26.75;15.40;;;;;;;10.38;100.00;99185.31;5149979;28;20050;-96
2022/11/10 00:49:43;;;;;;;27.80;16.27;;;;;;;10.36;100.00;99187.13;5149571;28;20039;-96
2022/11/10 00:52:10;;;;;;;23.35;15.43;;;;;;;10.32;100.00;99185.41;5146831;28;20047;-95
2022/11/10 00:54:37;;;;;;;21.88;14.85;;;;;;;10.38;100.00;99203.91;5149089;28;20044;-96
2022/11/10 00:57:24;;;;;;;23.15;15.05;;;;;;;10.32;100.00;99184.56;5150205;28;20043;-93
2022/11/10 00:59:56;;;;;;;22.83;14.80;;;;;;;10.31;100.00;99188.13;5150575;28;20065;-95
2022/11/10 01:02:26;;;;;;;21.77;15.15;;;;;;;10.28;100.00;99194.34;5149713;28;20040;-95
2022/11/10 01:05:02;;;;;;;20.98;14.32;;;;;;;10.47;100.00;99219.72;5150620;28;20051;-96
2022/11/10 01:07:34;;;;;;;24.25;16.30;;;;;;;10.33;100.00;99208.47;5150124;28;20039;-95
2022/11/10 01:10:03;;;;;;;27.55;19.75;;;;;;;10.33;100.00;99208.47;5149730;28;20052;-96
2022/11/10 01:12:38;;;;;;;25.48;16.55;;;;;;;10.27;100.00;99192.59;5150126;28;20599;-95
2022/11/10 01:15:11;;;;;;;22.30;16.10;;;;;;;10.29;100.00;99193.47;5149198;28;20450;-95
2022/11/10 01:17:38;;;;;;;21.90;14.50;;;;;;;10.32;100.00;99196.06;5148008;28;20049;-95
2022/11/10 01:20:09;;;;;;;19.00;13.13;;;;;;;10.48;100.00;99208.16;5148199;28;20058;-95
2022/11/10 01:22:39;;;;;;;20.42;13.57;;;;;;;10.42;100.00;99183.47;5148251;28;20040;-96
2022/11/10 01:25:12;;;;;;;20.70;13.35;;;;;;;10.59;100.00;99212.41;5147161;28;20044;-96
2022/11/10 01:27:43;;;;;;;21.80;13.55;;;;;;;10.44;100.00;99181.66;5142935;28;20107;-95
2022/11/10 01:30:11;;;;;;;21.20;13.40;;;;;;;10.43;100.00;99182.56;5135265;28;20044;-94
2022/11/10 01:32:40;;;;;;;16.88;12.18;;;;;;;10.44;100.00;99185.19;5135495;28;20044;-93
2022/11/10 01:35:14;;;;;;;18.08;12.73;;;;;;;10.45;100.00;99186.97;5135444;28;20023;-94
2022/11/10 01:37:46;;;;;;;18.80;13.07;;;;;;;10.58;100.00;99210.63;5135818;28;20044;-95
2022/11/10 01:40:21;;;;;;;18.40;13.32;;;;;;;10.39;100.00;99186.22;5135246;28;20043;-93
2022/11/10 01:42:54;;;;;;;18.13;11.82;;;;;;;10.48;100.00;99209.94;5135737;28;20040;-93
2022/11/10 01:45:53;;;;;;;19.45;13.40;;;;;;;10.33;100.00;99181.00;5135525;28;20095;-94
2022/11/10 01:48:47;;;;;;;22.10;13.75;;;;;;;10.32;100.00;99181.91;5123087;28;20095;-95
2022/11/10 01:51:22;;;;;;;26.17;17.63;;;;;;;10.31;100.00;99175.72;5135101;28;20096;-95
2022/11/10 01:53:57;;;;;;;26.45;18.85;;;;;;;10.33;100.00;99199.63;5134766;28;20069;-95
2022/11/10 01:56:38;;;;;;;28.60;19.08;;;;;;;10.41;100.00;99218.94;5134287;28;20038;-95
2022/11/10 01:59:15;;;;;;;27.25;18.58;;;;;;;10.15;100.00;99182.19;5133951;28;20055;-95
2022/11/10 02:01:47;;;;;;;30.95;20.77;;;;;;;10.15;100.00;99188.41;5134352;28;20067;-95
2022/11/10 02:04:19;;;;;;;29.95;20.20;;;;;;;10.09;100.00;99188.50;5134604;28;20127;-95
2022/11/10 02:06:49;;;;;;;33.00;21.20;;;;;;;10.07;100.00;99187.66;5147620;27;20071;-95
2022/11/10 02:09:22;;;;;;;29.48;20.65;;;;;;;10.02;100.00;99182.44;5155082;27;20047;-95
2022/11/10 02:11:55;;;;;;;28.73;20.35;;;;;;;10.18;100.00;99214.03;5155274;27;20042;-95
2022/11/10 02:14:26;;;;;;;29.73;19.02;;;;;;;10.00;100.00;99183.38;5155562;27;20043;-96
2022/11/10 02:16:56;;;;;;;23.70;15.90;;;;;;;9.97;100.00;99183.41;5154747;27;20043;-95
2022/11/10 02:19:40;;;;;;;20.92;14.38;;;;;;;9.99;100.00;99187.78;5155052;27;20039;-95
2022/11/10 02:22:15;;;;;;;23.17;14.02;;;;;;;10.12;100.00;99219.44;5156022;27;20047;-95
2022/11/10 02:24:57;;;;;;;17.45;12.63;;;;;;;10.10;100.00;99224.78;5155676;27;20395;-95
2022/11/10 02:27:26;;;;;;;17.60;11.40;;;;;;;10.13;100.00;99226.50;5154708;27;20039;-95
2022/11/10 02:29:56;;;;;;;16.85;11.45;;;;;;;10.00;100.00;99212.59;5154696;27;20047;-95
2022/11/10 02:32:28;;;;;;;16.75;11.88;;;;;;;10.10;100.00;99231.88;5154582;27;20030;-95
2022/11/10 02:34:55;;;;;;;17.70;12.30;;;;;;;9.89;100.00;99194.19;5154779;27;20035;-95
2022/11/10 02:37:22;;;;;;;23.15;15.57;;;;;;;10.09;100.00;99215.06;5152296;27;20103;-95
2022/11/10 02:39:55;;;;;;;28.27;17.13;;;;;;;10.12;100.00;99208.81;5151875;27;20138;-96
2022/11/10 02:42:31;;;;;;;22.02;15.85;;;;;;;10.30;100.00;99232.44;5154373;27;20043;-95
2022/11/10 02:45:00;;;;;;;22.50;15.33;;;;;;;10.24;100.00;99230.75;5154852;27;20098;-96
2022/11/10 02:47:37;;;;;;;26.33;16.17;;;;;;;10.11;100.00;99207.94;5155109;27;20047;-95
2022/11/10 02:50:10;;;;;;;21.73;15.65;;;;;;;10.02;100.00;99210.78;5154148;27;20041;-96
2022/11/10 02:52:40;;;;;;;24.23;15.68;;;;;;;10.00;100.00;99224.09;5154135;27;20043;-96
2022/11/10 02:55:10;;;;;;;23.20;15.40;;;;;;;9.75;100.00;99189.09;5153728;27;20046;-96
2022/11/10 02:57:38;;;;;;;27.80;16.92;;;;;;;9.90;100.00;99219.81;5153749;27;20068;-95
2022/11/10 03:00:12;;;;;;;26.58;17.58;;;;;;;9.71;100.00;99197.13;5154110;27;20039;-95
2022/11/10 03:02:46;;;;;;;27.38;18.33;;;;;;;10.00;100.00;99225.88;5152454;27;20039;-95
2022/11/10 03:05:13;;;;;;;31.60;19.60;;;;;;;10.03;100.00;99218.69;5151233;27;20043;-94
2022/11/10 03:07:41;;;;;;;30.15;17.45;;;;;;;9.88;100.00;99189.75;5151226;27;20043;-95
2022/11/10 03:10:11;;;;;;;25.65;17.27;;;;;;;9.91;100.00;99200.34;5152342;27;20043;-96
2022/11/10 03:12:40;;;;;;;26.48;17.23;;;;;;;9.88;100.00;99200.38;5152192;27;20582;-95
2022/11/10 03:15:12;;;;;;;26.95;17.08;;;;;;;9.91;100.00;99208.31;5151229;27;20051;-95
2022/11/10 03:17:44;;;;;;;24.52;16.80;;;;;;;10.03;100.00;99239.97;5153366;27;20055;-95
2022/11/10 03:20:16;;;;;;;24.83;16.45;;;;;;;9.99;100.00;99227.63;5153621;27;20046;-96
2022/11/10 03:22:50;;;;;;;23.23;15.55;;;;;;;10.03;100.00;99233.78;5152744;27;20400;-95
2022/11/10 03:25:18;;;;;;;24.10;16.25;;;;;;;9.88;100.00;99203.03;5152056;27;20043;-93
2022/11/10 03:27:45;;;;;;;24.52;15.65;;;;;;;9.86;100.00;99204.84;5151712;27;20047;-96
2022/11/10 03:30:13;;;;;;;;;;;;;;;10.10;100.00;99242.50;5154071;27;20050;-95
2022/11/10 03:32:42;;;;;;;22.23;14.88;;;;;;;10.13;100.00;99242.44;5153071;27;19926;-95
2022/11/10 03:35:17;;;;;;;22.00;15.13;;;;;;;10.14;100.00;99257.50;5153555;27;20151;-96
2022/11/10 03:37:49;;;;;;;24.52;15.32;;;;;;;9.88;100.00;99224.28;5153069;27;20060;-95
2022/11/10 03:40:16;;;;;;;23.08;14.95;;;;;;;9.83;100.00;99224.38;5152956;27;20069;-95
2022/11/10 03:42:47;;;;;;;23.85;14.93;;;;;;;9.80;100.00;99229.75;5152979;27;20019;-95
2022/11/10 03:45:17;;;;;;;23.30;16.17;;;;;;;9.79;100.00;99227.09;5152317;27;20046;-95
2022/11/10 03:47:46;;;;;;;27.05;17.52;;;;;;;10.02;100.00;99262.13;5150438;27;20090;-96
2022/11/10 03:50:15;;;;;;;25.17;16.50;;;;;;;10.07;100.00;99267.38;5151742;27;20058;-96
2022/11/10 03:52:46;;;;;;;27.20;16.92;;;;;;;9.93;100.00;99235.72;5149795;27;20043;-95
2022/11/10 03:55:17;;;;;;;25.65;17.40;;;;;;;10.14;100.00;99229.16;5150475;27;20039;-96
2022/11/10 03:57:44;;;;;;;24.77;17.50;;;;;;;10.46;100.00;99264.94;5150861;27;20041;-96
2022/11/10 04:00:24;;;;;;;25.55;16.25;;;;;;;10.46;100.00;99272.91;5148931;27;20043;-93
2022/11/10 04:02:54;;;;;;;25.95;15.23;;;;;;;10.23;100.00;99236.06;5151947;27;20039;-94
2022/11/10 04:17:48;;;;;;;22.27;13.70;;;;;;;10.45;100.00;99256.09;5167395;27;20199;-96
2022/11/10 04:20:30;;;;;;;21.95;13.88;;;;;;;10.48;100.00;99244.50;5149822;28;20132;-96
2022/11/10 04:36:31;;;;;;;20.95;13.00;;;;;;;10.10;100.00;99259.31;6222282;22;2739847;-96
2022/11/10 04:38:59;;;;;;;18.98;12.80;;;;;;;10.23;100.00;99282.13;6307443;22;20038;-96
2022/11/10 04:41:37;;;;;;;18.52;13.15;;;;;;;10.22;100.00;99284.84;6308288;22;20071;-96
2022/11/10 04:44:08;;;;;;;19.50;12.02;;;;;;;10.17;100.00;99281.34;6303046;22;20015;-95
2022/11/10 04:46:51;;;;;;;17.45;11.60;;;;;;;10.03;100.00;99250.59;6303893;22;20400;-94
2022/11/10 04:49:37;;;;;;;17.30;12.13;;;;;;;9.96;100.00;99250.75;6305476;22;20019;-95
2022/11/10 04:52:11;;;;;;;16.83;11.77;;;;;;;10.11;100.00;99289.47;6303903;22;20146;-95
2022/11/10 04:54:46;;;;;;;23.00;14.00;;;;;;;9.91;100.00;99252.56;6305581;22;20034;-95
2022/11/10 04:57:13;;;;;;;22.70;13.60;;;;;;;9.83;100.00;99260.69;6301333;22;20016;-94
2022/11/10 04:59:42;;;;;;;18.92;12.82;;;;;;;10.12;100.00;99270.81;6300369;22;20015;-96
2022/11/10 05:02:15;;;;;;;18.55;12.20;;;;;;;10.26;100.00;99257.31;6305482;22;20015;-96
2022/11/10 05:05:02;;;;;;;17.88;12.02;;;;;;;10.16;100.00;99263.69;6303509;22;20015;-95
2022/11/10 05:07:31;;;;;;;18.40;12.07;;;;;;;10.13;100.00;99283.22;6304935;22;20016;-95
2022/11/10 05:10:00;;;;;;;20.63;13.75;;;;;;;10.05;100.00;99261.19;6304079;22;20069;-96
2022/11/10 05:12:53;;;;;;;19.15;13.85;;;;;;;9.97;100.00;99265.75;6305736;22;20026;-96
2022/11/10 05:15:35;;;;;;;18.00;13.35;;;;;;;9.96;100.00;99277.31;6306287;22;20012;-96
2022/11/10 05:18:21;;;;;;;18.70;13.88;;;;;;;9.93;100.00;99280.00;6305635;22;20015;-95
2022/11/10 05:21:00;;;;;;;20.77;13.15;;;;;;;10.02;100.00;99293.16;6305629;22;20016;-94
2022/11/10 05:23:42;;;;;;;19.88;14.05;;;;;;;10.15;100.00;99288.47;6305443;22;20015;-96
2022/11/10 05:26:11;;;;;;;25.45;15.45;;;;;;;10.00;100.00;99276.34;6303888;22;20338;-96
2022/11/10 05:28:37;;;;;;;21.15;14.25;;;;;;;10.16;100.00;99314.16;6304573;22;20020;-96
2022/11/10 05:31:04;;;;;;;22.13;15.40;;;;;;;9.92;100.00;99281.78;6306121;22;20019;-94
2022/11/10 05:33:37;;;;;;;19.95;14.23;;;;;;;9.86;100.00;99281.88;6306569;22;20020;-96
2022/11/10 05:36:11;;;;;;;24.95;14.48;;;;;;;9.84;100.00;99284.53;6302364;22;20020;-96
2022/11/10 05:38:44;;;;;;;21.83;15.30;;;;;;;10.02;100.00;99315.28;6299362;22;20024;-94
2022/11/10 05:41:32;;;;;;;21.20;14.90;;;;;;;10.10;100.00;99308.94;6297758;22;20015;-94
2022/11/10 05:44:01;;;;;;;20.98;14.57;;;;;;;10.06;100.00;99290.41;6280975;22;20086;-95
2022/11/10 05:46:30;;;;;;;;;;;;;;;10.18;100.00;99317.69;6298954;22;20016;-95
2022/11/10 05:49:00;;;;;;;19.50;13.20;;;;;;;10.17;100.00;99323.88;6298490;22;20317;-96
2022/11/10 05:51:26;;;;;;;21.42;14.68;;;;;;;9.93;100.00;99283.56;6297399;22;20019;-96
2022/11/10 05:54:03;;;;;;;22.00;15.05;;;;;;;10.15;100.00;99321.28;6299105;22;20034;-96
2022/11/10 05:56:38;;;;;;;24.63;15.10;;;;;;;9.94;100.00;99287.94;6299572;22;20043;-96
2022/11/10 05:59:19;;;;;;;22.88;15.10;;;;;;;9.94;100.00;99273.78;6298951;22;20046;-96
2022/11/10 06:01:59;;;;;;;23.67;16.23;;;;;;;10.10;100.00;99308.94;6298713;22;20019;-96
2022/11/10 06:04:42;;;;;;;24.15;17.17;;;;;;;10.14;100.00;99310.66;6296884;22;20012;-95
2022/11/10 06:07:27;;;;;;;25.25;17.08;;;;;;;9.95;100.00;99279.06;6300396;22;20030;-96
2022/11/10 06:10:29;;;;;;;23.17;16.20;;;;;;;10.05;100.00;99301.94;6297938;22;20026;-96
2022/11/10 06:16:33;;;;;;;23.03;16.33;;;;;;;9.95;100.00;99287.03;6297456;22;20457;-95
2022/11/10 06:23:19;;;;;;;24.67;16.90;;;;;;;10.00;100.00;99269.25;6301673;22;20007;-96
2022/11/10 06:26:05;;;;;;;25.17;16.37;;;;;;;10.02;100.00;99279.88;6300503;22;20004;-96
2022/11/10 06:28:48;;;;;;;25.33;17.20;;;;;;;9.95;100.00;99284.38;6299073;22;20020;-96
2022/11/10 06:31:15;;;;;;;25.23;17.60;;;;;;;10.01;100.00;99294.03;6295995;22;20019;-96
2022/11/10 06:33:56;;;;;;;24.30;16.52;;;;;;;10.12;100.00;99320.44;6296682;22;20016;-95
2022/11/10 06:36:30;;;;;;;25.50;17.60;;;;;;;9.93;100.00;99283.56;6299982;22;20069;-96
2022/11/10 06:43:02;;;;;;;22.77;15.95;;;;;;;10.01;100.00;99278.09;6300620;22;20023;-96
2022/11/10 06:49:13;;;;;;;25.17;16.52;;;;;;;10.27;100.00;99321.03;6300249;22;20020;-96
2022/11/10 06:52:22;;;;;;;24.50;17.08;;;;;;;10.18;100.00;99293.75;6268478;22;20039;-96
2022/11/10 07:09:42;;;;;;;49.85;27.85;;;;;;;11.03;100.00;99338.31;6268918;22;19951;-96
2022/11/10 07:20:04;;;;;;;22.38;16.77;;;;;;;11.36;100.00;99335.88;6214432;22;20008;-95
2022/11/10 07:22:48;;;;;;;23.00;16.23;;;;;;;11.48;100.00;99346.28;6272283;22;20055;-96
2022/11/10 07:25:38;;;;;;;24.23;16.30;;;;;;;11.52;100.00;99340.84;6270031;22;20012;-95
2022/11/10 07:28:35;;;;;;;24.45;16.83;;;;;;;11.68;100.00;99348.50;6200352;22;20024;-95
2022/11/10 07:31:04;;;;;;;24.70;17.00;;;;;;;11.75;100.00;99352.75;6267582;22;20024;-96
2022/11/10 07:33:47;;;;;;;22.50;15.68;;;;;;;11.86;100.00;99360.50;6269642;22;20027;-96
2022/11/10 07:39:37;;;;;;;21.55;15.07;;;;;;;12.12;100.00;99347.50;6269643;22;20021;-95
2022/11/10 07:42:17;;;;;;;24.25;17.35;;;;;;;12.27;100.00;99350.69;6269988;22;20080;-96
2022/11/10 07:51:11;;;;;;;21.17;15.43;;;;;;;12.59;100.00;99367.69;6255525;22;20397;-96
2022/11/10 07:53:43;;;;;;;22.92;17.17;;;;;;;12.52;100.00;99374.97;6269907;22;20015;-96
2022/11/10 07:56:20;;;;;;;;;;;;;;;12.82;100.00;99407.13;6270609;22;20016;-96
2022/11/10 07:59:02;;;;;;;22.48;16.17;;;;;;;12.87;100.00;99403.41;6265319;22;19991;-96
2022/11/10 08:15:43;;;;;;;19.35;12.65;;;;;;;13.20;97.39;99392.75;6205021;23;19900;-96
2022/11/10 08:18:19;;;;;;;16.08;11.93;;;;;;;13.41;94.95;99390.44;6208477;23;20001;-95
2022/11/10 08:21:07;;;;;;;16.35;12.10;;;;;;;13.51;94.19;99418.63;6209333;23;20390;-96
2022/11/10 08:26:51;;;;;;;17.05;11.82;;;;;;;13.41;93.05;99411.81;6241234;22;20039;-96
2022/11/10 08:29:24;;;;;;;;;;;;;;;13.45;95.10;99426.84;6268401;22;20016;-96
2022/11/10 08:31:52;;;;;;;19.63;13.07;;;;;;;13.42;95.92;99432.25;6263965;22;19938;-96
2022/11/10 08:34:20;;;;;;;15.02;11.63;;;;;;;13.31;95.31;99403.16;6270203;22;20000;-96
2022/11/10 08:37:23;;;;;;;;;;;;;;;;;;;;;
2022/11/10 08:39:53;;;;;;;18.52;13.30;;;;;;;13.46;95.71;99413.41;6266697;22;20019;-96
2022/11/10 08:42:19;;;;;;;15.20;12.48;;;;;;;13.46;94.26;99417.88;6260252;22;20016;-94
2022/11/10 08:44:45;;;;;;;17.63;12.15;;;;;;;13.51;94.79;99418.63;6257231;23;20091;-95
2022/11/10 08:47:14;;;;;;;16.13;12.13;;;;;;;13.70;93.04;99400.25;6263100;23;20103;-96
2022/11/10 08:49:41;;;;;;;17.17;11.75;;;;;;;13.73;90.71;99411.75;6259873;23;20020;-96
2022/11/10 08:52:09;;;;;;;15.27;10.95;;;;;;;13.80;91.29;99411.56;6259715;22;20052;-96
2022/11/10 08:54:35;;;;;;;14.52;9.90;;;;;;;13.77;90.40;99412.53;6257604;22;20058;-96
2022/11/10 08:57:01;;;;;;;11.95;9.00;;;;;;;13.76;89.35;99413.44;6255466;22;20020;-95
2022/11/10 09:02:02;;;;;;;14.75;8.88;;;;;;;13.97;86.95;99425.31;6233567;22;20016;-96
2022/11/10 09:05:02;;;;;;;10.13;7.72;;;;;;;14.28;84.16;99419.00;6235818;23;20015;-96
2022/11/10 09:11:04;;;;;;;11.95;8.70;;;;;;;14.45;83.43;99422.00;6241011;23;20008;-96
2022/11/10 09:13:30;;;;;;;12.23;8.15;;;;;;;14.64;80.86;99427.66;6239731;23;20005;-96
2022/11/10 09:16:19;;;;;;;10.27;7.80;;;;;;;14.80;79.65;99436.06;6236247;23;20012;-96
2022/11/10 09:21:22;;;;;;;13.07;10.38;;;;;;;14.53;84.75;99433.34;6233641;22;20017;-94
2022/11/10 09:26:23;;;;;;;13.95;9.95;;;;;;;14.12;85.06;99435.53;6249505;22;20027;-95
2022/11/10 09:31:39;;;;;;;12.10;8.25;;;;;;;14.44;80.96;99440.78;6186910;23;20016;-96
2022/11/10 09:34:07;;;;;;;11.52;7.22;;;;;;;14.39;81.91;99438.25;6230534;22;20036;-96
2022/11/10 09:36:39;;;;;;;9.98;7.72;;;;;;;14.62;81.97;99471.47;6229738;23;20031;-95
2022/11/10 09:39:05;;;;;;;10.63;7.43;;;;;;;14.87;81.13;99475.06;6239914;23;20017;-94
2022/11/10 09:41:32;;;;;;;9.90;6.80;;;;;;;14.68;78.37;99444.47;6230451;23;20040;-96
2022/11/10 09:44:05;;;;;;;10.48;7.10;;;;;;;15.04;77.21;99470.97;6231177;23;20028;-95
2022/11/10 09:46:37;;;;;;;8.57;5.95;;;;;;;15.10;76.69;99444.84;6236065;23;20024;-95
2022/11/10 09:49:12;;;;;;;10.50;5.82;;;;;;;15.22;73.85;99451.56;6229888;23;20017;-96
2022/11/10 09:51:41;;;;;;;7.28;4.90;;;;;;;15.28;73.30;99453.16;6231564;23;20016;-96
2022/11/10 09:57:26;;;;;;;7.40;4.57;;;;;;;15.70;69.67;99464.16;6218567;23;19923;-96
2022/11/10 09:59:53;;;;;;;7.55;4.60;;;;;;;15.69;70.46;99454.34;6229773;23;20366;-96
2022/11/10 10:02:27;;;;;;;9.13;4.30;;;;;;;16.09;69.67;99479.72;6233417;23;20021;-96
2022/11/10 10:05:24;;;;;;;6.10;4.20;;;;;;;16.16;69.55;99466.94;6229657;23;20016;-95
2022/11/10 10:07:59;;;;;;;6.22;4.20;;;;;;;16.16;68.55;99453.50;6232182;23;20071;-96
2022/11/10 10:14:05;;;;;;;5.88;4.50;;;;;;;15.96;69.14;99451.56;6170640;23;20449;-94
2022/11/10 10:16:39;;;;;;;6.32;3.80;;;;;;;16.09;67.82;99451.97;6173712;23;20029;-95
2022/11/10 10:19:21;;;;;;;7.00;4.00;;;;;;;16.16;69.16;99462.44;6180352;23;20064;-96
2022/11/10 10:22:12;;;;;;;6.18;4.20;;;;;;;16.15;69.34;99475.91;6166742;23;20021;-91
2022/11/10 10:24:40;;;;;;;5.27;4.10;;;;;;;16.17;69.61;99458.81;6168821;23;20041;-95
2022/11/10 10:27:10;;;;;;;5.40;3.97;;;;;;;16.08;69.34;99444.88;6164084;23;20247;-96
2022/11/10 10:29:39;;;;;;;5.90;3.58;;;;;;;16.19;68.88;99446.19;6171527;23;20468;-96
2022/11/10 10:32:13;;;;;;;7.15;3.80;;;;;;;16.26;69.74;99446.84;6181710;23;20028;-94
2022/11/10 10:34:53;;;;;;;7.00;3.80;;;;;;;16.33;69.04;99444.78;6206097;23;20028;-96
2022/11/10 10:37:32;;;;;;;8.80;4.10;;;;;;;16.41;67.02;99438.16;6204770;23;20021;-96
2022/11/10 10:40:01;;;;;;;7.30;3.80;;;;;;;16.37;69.52;99444.63;6205653;23;20024;-95
2022/11/10 10:49:48;;;;;;;7.18;3.92;;;;;;;16.86;68.31;99490.09;6110849;23;20016;-96
2022/11/10 10:52:17;;;;;;;7.28;3.90;;;;;;;16.75;65.27;99452.03;6109301;23;20386;-96
2022/11/10 10:54:43;;;;;;;6.60;4.22;;;;;;;16.82;66.60;99456.25;6112686;23;20018;-96
2022/11/10 10:57:21;;;;;;;6.70;3.92;;;;;;;16.83;68.65;99466.06;6111384;23;20105;-96
2022/11/10 10:59:47;;;;;;;6.97;4.30;;;;;;;16.79;67.74;99461.72;6112898;23;20070;-96
2022/11/10 11:02:25;;;;;;;6.05;3.70;;;;;;;16.85;66.74;99458.81;6111100;23;20109;-96
2022/11/10 11:07:54;;;;;;;7.38;5.10;;;;;;;17.48;66.99;99487.47;6261615;22;20480;-95
2022/11/10 11:10:22;;;;;;;9.00;5.05;;;;;;;17.16;67.17;99479.88;6259770;23;20024;-95
2022/11/10 11:12:50;;;;;;;4.97;3.70;;;;;;;17.37;65.68;99486.16;6257233;23;20142;-95
2022/11/10 11:18:02;;;;;;;5.65;3.72;;;;;;;17.33;64.40;99470.22;6255279;22;20004;-95
2022/11/10 11:20:36;;;;;;;5.68;3.83;;;;;;;17.32;65.96;99471.16;6260277;22;20016;-96
2022/11/10 11:23:15;;;;;;;7.38;4.20;;;;;;;17.37;65.32;99483.47;6261222;22;20062;-96
2022/11/10 11:25:44;;;;;;;8.75;4.57;;;;;;;17.40;65.82;99469.88;6264789;22;20007;-96
2022/11/10 11:28:23;;;;;;;7.97;4.00;;;;;;;17.26;66.47;99483.03;6262297;22;20282;-96
2022/11/10 11:30:58;;;;;;;6.15;4.47;;;;;;;17.38;66.70;99495.97;6262442;22;20020;-95
2022/11/10 11:33:32;;;;;;;6.43;4.35;;;;;;;17.41;65.95;99477.03;6259226;22;20068;-96
2022/11/10 11:36:07;;;;;;;9.65;3.47;;;;;;;17.54;65.98;99495.28;6264087;22;19997;-96
2022/11/10 11:38:44;;;;;;;5.47;3.58;;;;;;;17.46;65.00;99509.09;6262433;23;20000;-96
2022/11/10 11:41:24;;;;;;;5.72;3.63;;;;;;;17.15;67.37;99491.56;6262779;22;20046;-96
2022/11/10 11:44:22;;;;;;;6.40;3.72;;;;;;;17.17;68.33;99488.81;6266822;22;20027;-96
2022/11/10 11:46:59;;;;;;;5.25;3.22;;;;;;;17.32;66.69;99482.78;6245045;23;20338;-96
2022/11/10 11:49:46;;;;;;;5.93;3.53;;;;;;;17.42;66.43;99481.44;6253633;22;20020;-96
2022/11/10 11:52:22;;;;;;;5.07;3.20;;;;;;;17.59;65.45;99474.47;6257348;22;20077;-96
2022/11/10 11:55:09;;;;;;;4.47;3.00;;;;;;;17.62;66.51;99479.69;6260003;22;20028;-96
2022/11/10 11:57:48;;;;;;;5.43;3.00;;;;;;;17.49;65.24;99465.06;6258458;22;20026;-96
2022/11/10 12:00:17;;;;;;;5.38;2.95;;;;;;;17.49;66.26;99468.59;6258239;22;20048;-96
2022/11/10 12:02:56;;;;;;;;;;;;;;;17.70;65.79;99495.50;6259215;22;20023;-96
2022/11/10 12:05:35;;;;;;;4.95;2.80;;;;;;;17.69;65.27;99475.78;6258898;22;19920;-95
2022/11/10 12:08:13;;;;;;;4.90;3.08;;;;;;;17.71;65.13;99478.41;6253916;23;20027;-94
2022/11/10 12:10:48;;;;;;;6.85;3.03;;;;;;;17.71;66.00;99484.66;6252357;22;20020;-96
2022/11/10 12:13:32;;;;;;;6.90;3.20;;;;;;;17.69;66.61;99473.09;6255579;22;20573;-95
2022/11/10 12:16:04;;;;;;;5.50;3.65;;;;;;;17.70;66.59;99477.53;6256370;22;20035;-96
2022/11/10 12:18:35;;;;;;;4.50;3.10;;;;;;;17.86;66.53;99470.53;6252822;23;20328;-95
2022/11/10 12:21:14;;;;;;;5.00;3.47;;;;;;;17.53;67.46;99485.50;6251100;22;20023;-96
2022/11/10 12:23:47;;;;;;;;;;;;;;;18.03;66.05;99509.28;6254169;22;20343;-95
2022/11/10 12:26:27;;;;;;;5.22;3.13;;;;;;;18.00;65.63;99490.56;6255279;22;19916;-96
2022/11/10 12:29:04;;;;;;;5.93;2.97;;;;;;;17.95;66.53;99484.53;6256798;23;20052;-95
2022/11/10 12:31:33;;;;;;;4.90;3.10;;;;;;;17.85;67.36;99479.56;6257563;23;20099;-96
2022/11/10 12:34:08;;;;;;;4.95;3.22;;;;;;;17.93;67.33;99494.47;6258480;22;20024;-95
2022/11/10 12:36:34;;;;;;;7.05;3.53;;;;;;;17.89;66.64;99482.09;6258382;22;20080;-95
2022/11/10 12:39:09;;;;;;;7.43;4.05;;;;;;;17.88;66.42;99486.63;6258186;23;20389;-96
2022/11/10 12:41:42;;;;;;;5.63;4.55;;;;;;;17.98;67.09;99501.41;6260192;22;20020;-96
2022/11/10 12:44:20;;;;;;;7.57;3.95;;;;;;;17.86;67.43;99493.88;6259039;22;20016;-96
2022/11/10 12:46:54;;;;;;;5.75;3.20;;;;;;;17.76;68.18;99493.41;6261094;22;20299;-96
2022/11/10 12:49:31;;;;;;;4.10;2.92;;;;;;;17.63;69.84;99487.69;6261544;22;20012;-96
2022/11/10 12:52:05;;;;;;;4.57;3.22;;;;;;;17.65;70.26;99507.34;6261591;22;20488;-96
2022/11/10 12:54:34;;;;;;;5.63;3.30;;;;;;;17.59;70.47;99504.06;6261845;22;20016;-95
2022/11/10 13:00:26;;;;;;;4.75;3.08;;;;;;;17.52;70.82;99487.31;5104873;27;20144;-95
2022/11/10 13:02:55;;;;;;;6.85;3.80;;;;;;;17.66;71.52;99525.22;5102249;28;20143;-96
2022/11/10 13:05:35;;;;;;;6.22;4.00;;;;;;;17.40;71.08;99486.00;5098873;28;20086;-96
2022/11/10 13:08:12;;;;;;;5.35;3.50;;;;;;;17.52;71.43;99505.25;5103650;28;20436;-96
2022/11/10 13:10:50;;;;;;;6.93;3.83;;;;;;;17.47;71.74;99489.31;5102721;28;20037;-95
2022/11/10 13:13:19;;;;;;;5.55;3.83;;;;;;;17.51;70.11;99484.69;5104248;28;20108;-94
2022/11/10 13:15:58;;;;;;;6.60;3.60;;;;;;;17.59;70.76;99506.75;5100528;28;20078;-96
2022/11/10 13:18:58;;;;;;;5.22;3.70;;;;;;;17.56;71.35;99490.72;5099437;28;20093;-96
2022/11/10 13:22:14;;;;;;;7.15;3.75;;;;;;;17.60;72.41;99489.66;5020064;28;20104;-96
2022/11/10 13:24:43;;;;;;;6.88;4.03;;;;;;;17.52;72.22;99500.75;4913853;29;20530;-96
2022/11/10 13:27:33;;;;;;;7.05;4.05;;;;;;;17.49;71.54;99494.63;4928771;29;20054;-96
2022/11/10 13:30:01;;;;;;;9.52;4.53;;;;;;;17.45;71.68;99510.00;4927335;29;20132;-96
2022/11/10 13:32:31;;;;;;;6.57;4.70;;;;;;;17.53;72.03;99526.69;4924543;29;20049;-96
2022/11/10 13:35:30;;;;;;;7.20;4.45;;;;;;;17.40;74.56;99501.28;4922697;29;20052;-96
2022/11/10 13:37:56;;;;;;;7.72;4.88;;;;;;;17.31;73.51;99502.56;4924008;29;20045;-96
2022/11/10 13:40:33;;;;;;;12.32;4.57;;;;;;;17.28;73.36;99493.72;4924676;29;20494;-94
2022/11/10 13:43:26;;;;;;;7.93;4.50;;;;;;;17.34;73.17;99504.22;4928322;29;20052;-96
2022/11/10 13:46:02;;;;;;;6.40;4.25;;;;;;;17.26;72.72;99493.78;4851389;29;20106;-96
2022/11/10 13:48:50;;;;;;;6.85;4.45;;;;;;;17.39;74.04;99521.94;4852417;29;20050;-96
2022/11/10 13:51:34;;;;;;;8.90;4.43;;;;;;;17.24;74.56;99504.63;4860724;29;20050;-96
2022/11/10 13:54:26;;;;;;;5.20;3.53;;;;;;;17.17;72.51;99499.56;4946487;29;20063;-96
2022/11/10 13:57:11;;;;;;;5.35;3.50;;;;;;;17.24;73.54;99519.91;5040300;28;20053;-96
2022/11/10 13:59:51;;;;;;;5.78;3.47;;;;;;;17.14;75.48;99508.63;5043732;28;20109;-96
2022/11/10 14:02:44;;;;;;;8.25;4.57;;;;;;;17.28;77.10;99545.69;5045237;28;20053;-96
2022/11/10 14:05:56;;;;;;;9.77;5.70;;;;;;;17.05;76.24;99517.09;5044453;28;20080;-96
2022/11/10 14:08:27;;;;;;;10.07;4.93;;;;;;;17.12;77.93;99532.00;5043810;28;20054;-96
2022/11/10 14:17:29;;;;;;;8.00;5.53;;;;;;;16.91;87.01;99525.69;4991934;28;20034;-96
2022/11/10 14:19:58;;;;;;;11.63;5.95;;;;;;;16.81;87.60;99524.34;4992221;28;20035;-95
2022/11/10 14:22:52;;;;;;;;;;;;;;;;;;;;;